Time;durP1;ratioP1;P1;durP2;ratioP2;P2;SDS_P1;SDS_P2;PMS_P1;PMS_P2;Temp;Humidity;BMP_temperature;BMP_pressure;BME280_temperature;BME280_humidity;BME280_pressure;Samples;Min_cycle;Max_cycle;Signal;HPM_P1;HPM_P2
2023/05/02 00:01:11;;;;;;;;;;;;;;;14.78;70.63;100537.78;4920481;29;19915;-80
2023/05/02 00:04:03;;;;;;;;;;;;;;;14.76;70.89;100534.63;4922708;29;19918;-80
2023/05/02 00:06:52;;;;;;;;;;;;;;;14.81;70.76;100537.13;4921540;29;20382;-81
2023/05/02 00:09:42;;;;;;;;;;;;;;;14.70;70.25;100533.25;4920277;29;19915;-80
2023/05/02 00:12:34;;;;;;;;;;;;;;;14.70;70.00;100521.53;4917236;29;20363;-80
2023/05/02 00:15:26;;;;;;;;;;;;;;;14.77;69.19;100508.03;4913859;29;19918;-80
2023/05/02 00:18:18;;;;;;;;;;;;;;;14.69;69.20;100495.28;4922537;29;19915;-80
2023/05/02 00:21:10;;;;;;;;;;;;;;;14.66;68.89;100476.84;4923141;29;20310;-80
2023/05/02 00:24:02;;;;;;;;;;;;;;;14.70;68.61;100475.78;4924602;29;19923;-81
2023/05/02 00:26:54;;;;;;;;;;;;;;;14.62;68.60;100465.00;4924298;29;19915;-79
2023/05/02 00:29:46;;;;;;;;;;;;;;;14.68;68.70;100455.41;4922093;29;19914;-79
2023/05/02 00:32:38;;;;;;;;;;;;;;;14.74;68.60;100456.72;4920109;29;19915;-79
2023/05/02 00:35:31;;;;;;;;;;;;;;;14.73;67.55;100458.66;4921666;29;19919;-80
2023/05/02 00:38:23;;;;;;;;;;;;;;;14.72;67.93;100451.63;4901741;29;19919;-80
2023/05/02 00:41:15;;;;;;;;;;;;;;;14.75;68.50;100450.09;4904578;29;19915;-80
2023/05/02 00:44:07;;;;;;;;;;;;;;;14.81;67.52;100448.72;4915498;29;19915;-79
2023/05/02 00:46:59;;;;;;;;;;;;;;;14.79;66.96;100438.09;4915960;29;19915;-79
2023/05/02 00:49:51;;;;;;;;;;;;;;;14.80;66.42;100445.19;4923011;29;19919;-80
2023/05/02 00:52:43;;;;;;;;;;;;;;;14.80;66.61;100436.16;4919343;29;20306;-79
2023/05/02 00:55:35;;;;;;;;;;;;;;;14.83;67.12;100440.97;4920927;29;19919;-79
2023/05/02 00:58:28;;;;;;;;;;;;;;;14.80;67.34;100438.91;4934687;29;19915;-79
2023/05/02 01:01:28;;;;;;;;;;;;;;;14.84;66.82;100431.56;4917620;29;20298;-79
2023/05/02 01:04:35;;;;;;;;;;;;;;;14.84;66.99;100437.03;4921397;29;19915;-79
2023/05/02 01:07:45;;;;;;;;;;;;;;;14.84;66.87;100426.91;4919833;29;19915;-79
2023/05/02 01:10:40;;;;;;;;;;;;;;;14.87;66.70;100425.41;4934973;29;19923;-80
2023/05/02 01:13:33;;;;;;;;;;;;;;;14.80;66.91;100427.94;4920715;29;19915;-80
2023/05/02 01:16:25;;;;;;;;;;;;;;;14.85;66.89;100438.66;4919519;29;20303;-80
2023/05/02 01:19:23;;;;;;;;;;;;;;;14.89;67.43;100437.59;4921129;29;20307;-79
2023/05/02 01:22:15;;;;;;;;;;;;;;;14.86;67.63;100434.78;4930942;29;19915;-80
2023/05/02 01:25:23;;;;;;;;;;;;;;;14.81;68.12;100441.28;4922223;29;19915;-80
2023/05/02 01:28:47;;;;;;;;;;;;;;;14.76;68.24;100438.00;4920157;29;19915;-80
2023/05/02 01:31:40;;;;;;;;;;;;;;;14.76;68.54;100457.19;4881570;29;19976;-79
2023/05/02 01:34:33;;;;;;;;;;;;;;;14.76;69.94;100449.75;4918282;29;19919;-79
2023/05/02 01:37:27;;;;;;;;;;;;;;;14.75;69.47;100439.94;4922637;29;20390;-79
2023/05/02 01:40:20;;;;;;;;;;;;;;;14.74;69.69;100432.88;4919321;29;19915;-80
2023/05/02 01:43:13;;;;;;;;;;;;;;;14.77;69.77;100431.41;4918613;29;19915;-80
2023/05/02 01:46:03;;;;;;;;;;;;;;;14.75;69.82;100433.69;4917518;29;20371;-80
2023/05/02 01:48:58;;;;;;;;;;;;;;;14.77;69.83;100428.66;4916199;29;19915;-81
2023/05/02 01:51:51;;;;;;;;;;;;;;;14.77;69.46;100431.41;4922810;29;19915;-80
2023/05/02 01:54:44;;;;;;;;;;;;;;;14.80;69.70;100433.44;4917312;29;20180;-81
2023/05/02 01:57:37;;;;;;;;;;;;;;;14.86;69.16;100430.09;4919180;29;19915;-81
2023/05/02 02:00:30;;;;;;;;;;;;;;;14.81;69.27;100422.13;4921620;29;19915;-80
2023/05/02 02:03:22;;;;;;;;;;;;;;;14.83;69.72;100425.31;4912398;29;19936;-80
2023/05/02 02:06:16;;;;;;;;;;;;;;;14.82;69.32;100431.16;4919456;29;19923;-81
2023/05/02 02:09:08;;;;;;;;;;;;;;;14.82;69.45;100433.88;4921691;29;20387;-80
2023/05/02 02:12:09;;;;;;;;;;;;;;;14.76;69.18;100435.28;4934643;29;19918;-82
2023/05/02 02:15:25;;;;;;;;;;;;;;;14.78;69.07;100435.75;4926734;29;20386;-81
2023/05/02 02:18:25;;;;;;;;;;;;;;;14.78;69.07;100430.25;4933405;29;19914;-80
2023/05/02 02:21:18;;;;;;;;;;;;;;;14.72;69.35;100435.19;4923688;29;19915;-80
2023/05/02 02:24:11;;;;;;;;;;;;;;;14.73;69.65;100441.47;4924321;29;19915;-80
2023/05/02 02:27:03;;;;;;;;;;;;;;;14.72;69.88;100439.88;4938210;29;19918;-79
2023/05/02 02:29:56;;;;;;;;;;;;;;;14.66;70.14;100442.06;4940240;29;19914;-79
2023/05/02 02:32:45;;;;;;;;;;;;;;;14.77;69.52;100434.13;4919092;29;20379;-80
2023/05/02 02:35:38;;;;;;;;;;;;;;;14.66;69.90;100435.78;4922065;29;19919;-79
2023/05/02 02:38:32;;;;;;;;;;;;;;;14.61;69.89;100444.25;4932036;29;19914;-80
2023/05/02 02:41:29;;;;;;;;;;;;;;;14.64;69.46;100438.84;4923344;29;19915;-80
2023/05/02 02:44:40;;;;;;;;;;;;;;;14.63;69.80;100440.00;4922131;29;19915;-79
2023/05/02 02:47:49;;;;;;;;;;;;;;;14.60;70.29;100437.16;4915887;29;19915;-79
2023/05/02 02:50:55;;;;;;;;;;;;;;;14.58;69.89;100431.28;4924728;29;19915;-79
2023/05/02 02:53:52;;;;;;;;;;;;;;;14.63;69.72;100422.81;4928313;29;19914;-79
2023/05/02 02:56:46;;;;;;;;;;;;;;;14.55;70.94;100413.59;4940482;28;19922;-79
2023/05/02 02:59:40;;;;;;;;;;;;;;;14.53;70.58;100424.88;4922230;29;19915;-80
2023/05/02 03:02:32;;;;;;;;;;;;;;;14.52;70.55;100428.78;4926521;29;19915;-80
2023/05/02 03:05:24;;;;;;;;;;;;;;;14.50;70.61;100427.53;4919339;29;19915;-80
2023/05/02 03:08:16;;;;;;;;;;;;;;;14.39;70.58;100427.22;4922363;29;19915;-80
2023/05/02 03:11:08;;;;;;;;;;;;;;;14.38;70.54;100431.09;4922619;29;19915;-79
2023/05/02 03:13:57;;;;;;;;;;;;;;;14.38;70.58;100431.09;4937102;29;19915;-79
2023/05/02 03:16:50;;;;;;;;;;;;;;;14.33;70.69;100434.03;4933012;29;19919;-79
2023/05/02 03:19:42;;;;;;;;;;;;;;;14.40;70.62;100442.50;4914509;29;20383;-80
2023/05/02 03:22:34;;;;;;;;;;;;;;;14.36;70.84;100449.81;4922113;29;19915;-80
2023/05/02 03:25:26;;;;;;;;;;;;;;;14.28;71.14;100460.84;4935206;29;19919;-81
2023/05/02 03:28:16;;;;;;;;;;;;;;;14.25;71.93;100461.53;4934070;29;20390;-80
2023/05/02 03:31:08;;;;;;;;;;;;;;;14.35;71.14;100463.78;4920363;29;19915;-80
2023/05/02 03:34:01;;;;;;;;;;;;;;;14.39;70.10;100473.72;4922679;29;19914;-81
2023/05/02 03:36:53;;;;;;;;;;;;;;;14.44;69.09;100472.69;4923298;29;19923;-80
2023/05/02 03:39:45;;;;;;;;;;;;;;;14.45;69.90;100466.88;4933930;29;20298;-80
2023/05/02 03:42:41;;;;;;;;;;;;;;;14.47;69.17;100455.59;4936627;29;19915;-80
2023/05/02 03:45:40;;;;;;;;;;;;;;;14.42;69.15;100459.38;4917083;29;19916;-80
2023/05/02 03:48:28;;;;;;;;;;;;;;;14.39;69.49;100464.72;4925437;29;19919;-80
2023/05/02 03:51:21;;;;;;;;;;;;;;;14.40;70.42;100471.78;4923106;29;20382;-80
2023/05/02 03:54:14;;;;;;;;;;;;;;;14.38;70.46;100461.19;4926284;29;19915;-80
2023/05/02 03:57:06;;;;;;;;;;;;;;;14.45;69.96;100472.34;4934761;29;20375;-80
2023/05/02 03:59:58;;;;;;;;;;;;;;;14.43;69.99;100477.34;4936231;29;19915;-80
2023/05/02 04:02:50;;;;;;;;;;;;;;;14.44;69.86;100489.09;4920516;29;19915;-80
2023/05/02 04:05:43;;;;;;;;;;;;;;;14.45;68.99;100488.75;4921134;29;19919;-80
2023/05/02 04:08:35;;;;;;;;;;;;;;;14.49;68.55;100486.13;4972092;23;19922;-83
2023/05/02 04:11:27;;;;;;;;;;;;;;;14.53;68.73;100492.47;4975000;28;19922;-83
2023/05/02 04:14:19;;;;;;;;;;;;;;;14.51;69.23;100492.84;4961835;28;19918;-84
2023/05/02 04:17:07;;;;;;;;;;;;;;;14.47;69.27;100493.91;4946984;28;20286;-82
2023/05/02 04:20:07;;;;;;;;;;;;;;;14.42;69.73;100494.94;4971567;28;19914;-81
2023/05/02 04:23:00;;;;;;;;;;;;;;;14.44;69.56;100497.31;4956140;28;19915;-82
2023/05/02 04:25:56;;;;;;;;;;;;;;;14.43;69.51;100499.25;4951058;29;19914;-81
2023/05/02 04:28:56;;;;;;;;;;;;;;;14.48;69.83;100504.47;4959156;28;19918;-82
2023/05/02 04:31:48;;;;;;;;;;;;;;;14.39;69.93;100509.28;4959719;28;19915;-82
2023/05/02 04:34:40;;;;;;;;;;;;;;;14.41;70.59;100504.28;4952069;29;20374;-82
2023/05/02 04:37:32;;;;;;;;;;;;;;;14.43;71.17;100514.84;4957957;28;19914;-82
2023/05/02 04:40:21;;;;;;;;;;;;;;;14.36;71.95;100518.19;4947921;29;19915;-82
2023/05/02 04:43:13;;;;;;;;;;;;;;;14.37;71.80;100522.53;4976051;28;19922;-84
2023/05/02 04:46:08;;;;;;;;;;;;;;;14.38;72.40;100532.31;4964857;28;19914;-83
2023/05/02 04:49:00;;;;;;;;;;;;;;;14.43;72.65;100531.28;4974560;28;19915;-82
2023/05/02 04:51:51;;;;;;;;;;;;;;;14.41;72.96;100536.31;4955021;28;19918;-83
2023/05/02 04:54:44;;;;;;;;;;;;;;;14.47;72.57;100533.00;4941554;29;19922;-83
2023/05/02 04:57:36;;;;;;;;;;;;;;;14.57;72.71;100537.19;4946670;29;19914;-82
2023/05/02 05:00:27;;;;;;;;;;;;;;;14.54;72.38;100544.13;4951076;29;19914;-83
2023/05/02 05:03:19;;;;;;;;;;;;;;;14.58;71.67;100546.97;4957650;28;19915;-80
2023/05/02 05:06:11;;;;;;;;;;;;;;;14.54;71.96;100546.88;4944863;29;19915;-80
2023/05/02 05:09:03;;;;;;;;;;;;;;;14.56;72.08;100557.47;4938977;29;19915;-84
2023/05/02 05:11:59;;;;;;;;;;;;;;;14.56;72.01;100552.00;4940724;28;19922;-82
2023/05/02 05:14:50;;;;;;;;;;;;;;;14.59;71.80;100553.25;4961045;28;19923;-86
2023/05/02 05:17:42;;;;;;;;;;;;;;;14.66;71.13;100567.94;4945156;28;20299;-85
2023/05/02 05:20:35;;;;;;;;;;;;;;;14.67;71.06;100568.75;4937281;29;19915;-85
2023/05/02 05:23:27;;;;;;;;;;;;;;;14.72;71.33;100574.00;4938847;29;19915;-85
2023/05/02 05:26:17;;;;;;;;;;;;;;;14.72;70.94;100576.72;4938180;28;20396;-85
2023/05/02 05:29:07;;;;;;;;;;;;;;;14.74;71.06;100579.91;4945289;29;19914;-84
2023/05/02 05:32:03;;;;;;;;;;;;;;;14.65;71.58;100581.97;4958962;28;19914;-80
2023/05/02 05:34:55;;;;;;;;;;;;;;;14.40;73.25;100583.97;4945961;29;19915;-80
2023/05/02 05:37:45;;;;;;;;;;;;;;;14.33;73.34;100581.75;4940375;28;19930;-80
2023/05/02 05:40:38;;;;;;;;;;;;;;;14.37;73.81;100582.72;4961718;28;19918;-80
2023/05/02 05:43:30;;;;;;;;;;;;;;;14.40;74.12;100582.03;4963175;28;20317;-79
2023/05/02 05:46:22;;;;;;;;;;;;;;;14.45;74.60;100584.53;4947223;28;20302;-79
2023/05/02 05:49:16;;;;;;;;;;;;;;;14.34;76.11;100591.56;4943436;29;19914;-79
2023/05/02 05:52:06;;;;;;;;;;;;;;;14.42;76.16;100590.69;4942005;29;20371;-80
2023/05/02 05:54:58;;;;;;;;;;;;;;;14.45;75.93;100587.25;4953534;28;19922;-79
2023/05/02 05:57:51;;;;;;;;;;;;;;;14.37;76.87;100590.94;4958123;28;20382;-78
2023/05/02 06:00:43;;;;;;;;;;;;;;;14.51;76.81;100594.09;4939867;29;19915;-77
2023/05/02 06:03:32;;;;;;;;;;;;;;;14.60;75.64;100591.22;4941967;29;19915;-80
2023/05/02 06:06:23;;;;;;;;;;;;;;;14.74;75.65;100582.63;4943894;29;20398;-79
2023/05/02 06:09:14;;;;;;;;;;;;;;;14.96;73.17;100579.38;4936747;29;20394;-80
2023/05/02 06:12:06;;;;;;;;;;;;;;;14.98;72.74;100579.84;4937440;29;19914;-80
2023/05/02 06:14:56;;;;;;;;;;;;;;;15.01;73.14;100576.41;4971577;28;19918;-80
2023/05/02 06:17:48;;;;;;;;;;;;;;;15.00;73.03;100583.00;4938107;29;19919;-79
2023/05/02 06:20:40;;;;;;;;;;;;;;;15.16;72.69;100580.31;4950461;28;19915;-80
2023/05/02 06:23:29;;;;;;;;;;;;;;;15.20;72.08;100589.44;4943400;29;19914;-79
2023/05/02 06:26:21;;;;;;;;;;;;;;;15.59;70.97;100596.03;4940478;29;19915;-79
2023/05/02 06:29:10;;;;;;;;;;;;;;;15.90;69.69;100601.50;4951200;28;19930;-79
2023/05/02 06:32:02;;;;;;;;;;;;;;;16.06;69.17;100607.78;4943476;29;19914;-79
2023/05/02 06:34:49;;;;;;;;;;;;;;;16.33;68.66;100617.06;4940853;29;19918;-81
2023/05/02 06:37:41;;;;;;;;;;;;;;;16.43;68.77;100618.47;4944239;29;19914;-79
2023/05/02 06:40:35;;;;;;;;;;;;;;;16.64;67.86;100625.28;4942307;29;19915;-78
2023/05/02 06:43:27;;;;;;;;;;;;;;;16.79;67.47;100629.16;4949600;28;19915;-80
2023/05/02 06:46:19;;;;;;;;;;;;;;;16.84;66.71;100626.13;4955483;28;20394;-79
2023/05/02 06:49:11;;;;;;;;;;;;;;;16.78;64.17;100635.78;4942686;29;19915;-78
2023/05/02 06:52:03;;;;;;;;;;;;;;;17.04;65.34;100641.47;4952258;29;20390;-82
2023/05/02 06:54:55;;;;;;;;;;;;;;;17.21;64.22;100640.25;4943214;29;19915;-81
2023/05/02 06:57:47;;;;;;;;;;;;;;;17.26;63.96;100648.22;4941711;28;19918;-79
2023/05/02 07:00:37;;;;;;;;;;;;;;;17.38;62.55;100650.00;4947248;28;19914;-79
2023/05/02 07:03:29;;;;;;;;;;;;;;;17.38;60.70;100656.28;4939800;29;19919;-79
2023/05/02 07:06:21;;;;;;;;;;;;;;;17.63;60.67;100645.81;4935660;28;20290;-78
2023/05/02 07:09:13;;;;;;;;;;;;;;;17.77;60.45;100653.53;4945429;28;19915;-79
2023/05/02 07:12:05;;;;;;;;;;;;;;;18.08;59.89;100656.03;4940656;28;19914;-80
2023/05/02 07:14:57;;;;;;;;;;;;;;;18.06;59.51;100652.88;4945198;28;19918;-78
2023/05/02 07:17:49;;;;;;;;;;;;;;;17.90;58.98;100655.75;4951629;28;20382;-78
2023/05/02 07:20:41;;;;;;;;;;;;;;;17.65;56.23;100653.69;4918953;29;19919;-78
2023/05/02 07:23:33;;;;;;;;;;;;;;;17.62;57.62;100655.22;4922849;29;19915;-78
2023/05/02 07:26:25;;;;;;;;;;;;;;;17.45;58.98;100661.13;4933860;29;19915;-79
2023/05/02 07:29:17;;;;;;;;;;;;;;;17.47;58.09;100665.09;4937572;28;20394;-78
2023/05/02 07:32:09;;;;;;;;;;;;;;;17.52;59.53;100661.28;4945143;28;19918;-80
2023/05/02 07:35:01;;;;;;;;;;;;;;;17.68;58.37;100658.47;4942167;28;20379;-78
2023/05/02 07:37:53;;;;;;;;;;;;;;;17.67;55.06;100659.63;4958082;28;19915;-81
2023/05/02 07:40:45;;;;;;;;;;;;;;;17.85;56.44;100664.31;4939728;29;20298;-78
2023/05/02 07:43:37;;;;;;;;;;;;;;;17.98;58.62;100669.66;4937520;29;19915;-79
2023/05/02 07:46:29;;;;;;;;;;;;;;;17.69;60.71;100669.09;4941176;29;19918;-76
2023/05/02 07:49:21;;;;;;;;;;;;;;;17.59;60.15;100677.94;4940023;28;20391;-78
2023/05/02 07:52:13;;;;;;;;;;;;;;;17.48;59.22;100683.19;4946159;28;20390;-78
2023/05/02 07:55:05;;;;;;;;;;;;;;;17.20;62.36;100671.63;4946220;28;20092;-81
2023/05/02 07:57:57;;;;;;;;;;;;;;;17.41;60.90;100679.53;4941197;29;19915;-79
2023/05/02 08:00:49;;;;;;;;;;;;;;;17.53;60.54;100674.66;4948525;28;19923;-79
2023/05/02 08:03:41;;;;;;;;;;;;;;;17.34;61.25;100679.38;4945432;28;19915;-80
2023/05/02 08:06:36;;;;;;;;;;;;;;;17.29;59.60;100677.72;4948547;28;19915;-78
2023/05/02 08:09:26;;;;;;;;;;;;;;;17.71;58.26;100679.75;4921444;29;20107;-76
2023/05/02 08:12:18;;;;;;;;;;;;;;;18.17;58.20;100686.91;4918991;29;19915;-78
2023/05/02 08:15:12;;;;;;;;;;;;;;;18.70;55.91;100684.22;4930562;28;19923;-79
2023/05/02 08:18:04;;;;;;;;;;;;;;;19.03;54.64;100689.03;4944758;28;20374;-79
2023/05/02 08:20:56;;;;;;;;;;;;;;;18.98;53.98;100700.38;4933171;29;19915;-80
2023/05/02 08:23:46;;;;;;;;;;;;;;;18.59;55.46;100708.84;4944382;28;19918;-80
2023/05/02 08:26:38;;;;;;;;;;;;;;;19.87;53.65;100705.06;4943088;28;19914;-78
2023/05/02 08:29:30;;;;;;;;;;;;;;;20.33;48.22;100702.78;4935397;29;19914;-79
2023/05/02 08:32:22;;;;;;;;;;;;;;;19.84;48.69;100700.31;4954450;28;20289;-81
2023/05/02 08:35:14;;;;;;;;;;;;;;;20.15;48.87;100699.03;4955641;28;19922;-80
2023/05/02 08:38:06;;;;;;;;;;;;;;;19.40;52.27;100709.22;4957790;28;20298;-79
2023/05/02 08:40:58;;;;;;;;;;;;;;;19.91;51.08;100705.91;4959127;28;19914;-78
2023/05/02 08:43:50;;;;;;;;;;;;;;;20.05;52.29;100715.13;4955657;28;20374;-79
2023/05/02 08:46:42;;;;;;;;;;;;;;;19.54;50.77;100709.44;4959861;28;19914;-79
2023/05/02 08:49:36;;;;;;;;;;;;;;;19.53;51.80;100718.09;4945781;28;19915;-80
2023/05/02 08:52:28;;;;;;;;;;;;;;;19.89;51.16;100716.53;4934220;29;19923;-78
2023/05/02 08:55:20;;;;;;;;;;;;;;;19.17;53.19;100706.56;4949595;28;19918;-79
2023/05/02 08:58:12;;;;;;;;;;;;;;;18.91;53.33;100708.53;4936912;28;19915;-78
2023/05/02 09:01:05;;;;;;;;;;;;;;;19.60;51.40;100723.69;4957432;28;19914;-77
2023/05/02 09:03:57;;;;;;;;;;;;;;;19.00;53.05;100718.13;4936939;28;19914;-81
2023/05/02 09:06:44;;;;;;;;;;;;;;;19.11;54.42;100723.78;4941825;28;19926;-85
2023/05/02 09:09:36;;;;;;;;;;;;;;;18.97;53.50;100729.09;4939247;28;19914;-78
2023/05/02 09:12:28;;;;;;;;;;;;;;;18.92;54.76;100727.47;4934083;29;19915;-78
2023/05/02 09:15:20;;;;;;;;;;;;;;;18.88;54.91;100726.63;4948517;28;19914;-78
2023/05/02 09:18:18;;;;;;;;;;;;;;;18.69;55.06;100730.25;4948238;28;20382;-77
2023/05/02 09:21:10;;;;;;;;;;;;;;;18.71;55.44;100747.22;4956565;28;19918;-77
2023/05/02 09:24:02;;;;;;;;;;;;;;;18.60;54.96;100737.97;4938882;28;20382;-77
2023/05/02 09:27:02;;;;;;;;;;;;;;;18.49;55.42;100739.72;4938214;29;19914;-80
2023/05/02 09:29:54;;;;;;;;;;;;;;;18.52;55.75;100741.75;4941185;29;20642;-80
2023/05/02 09:32:49;;;;;;;;;;;;;;;18.56;54.67;100745.41;4943980;29;19914;-79
2023/05/02 09:35:52;;;;;;;;;;;;;;;18.50;53.98;100749.59;4945689;29;19915;-78
2023/05/02 09:38:41;;;;;;;;;;;;;;;18.47;55.05;100753.09;4955649;28;19914;-80
2023/05/02 09:41:40;;;;;;;;;;;;;;;18.43;55.22;100755.00;4957979;29;19915;-81
2023/05/02 09:44:38;;;;;;;;;;;;;;;18.47;55.45;100758.59;4960307;28;19918;-81
2023/05/02 09:47:30;;;;;;;;;;;;;;;18.45;55.23;100762.88;4953503;28;20398;-81
2023/05/02 09:50:38;;;;;;;;;;;;;;;18.25;56.58;100770.38;4929474;29;19915;-79
2023/05/02 09:53:30;;;;;;;;;;;;;;;18.10;58.56;100774.81;4938422;29;20386;-79
2023/05/02 09:56:22;;;;;;;;;;;;;;;18.18;58.65;100773.81;4938511;29;19915;-80
2023/05/02 09:59:17;;;;;;;;;;;;;;;18.09;59.63;100775.19;4945293;29;19914;-80
2023/05/02 10:02:09;;;;;;;;;;;;;;;17.88;59.76;100773.59;4941711;29;19914;-81
2023/05/02 10:05:00;;;;;;;;;;;;;;;17.83;60.49;100773.09;4937107;29;19915;-81
2023/05/02 10:07:52;;;;;;;;;;;;;;;17.63;62.28;100777.81;5003088;23;19923;-80
2023/05/02 10:10:43;;;;;;;;;;;;;;;17.71;62.42;100776.81;4955848;29;19919;-80
2023/05/02 10:13:39;;;;;;;;;;;;;;;17.68;61.08;100773.97;4956212;28;19922;-79
2023/05/02 10:16:32;;;;;;;;;;;;;;;17.70;61.14;100782.66;4973744;28;20393;-78
2023/05/02 10:19:28;;;;;;;;;;;;;;;17.70;60.66;100775.22;4957557;29;19914;-79
2023/05/02 10:22:20;;;;;;;;;;;;;;;17.69;61.62;100778.31;4943122;29;19914;-79
2023/05/02 10:25:13;;;;;;;;;;;;;;;17.67;61.64;100773.19;4957336;29;19914;-79
2023/05/02 10:28:05;;;;;;;;;;;;;;;17.71;61.60;100782.31;4960110;28;19914;-79
2023/05/02 10:30:54;;;;;;;;;;;;;;;17.75;61.66;100776.88;4971779;28;19914;-79
2023/05/02 10:33:45;;;;;;;;;;;;;;;17.77;63.16;100769.06;4964330;28;19918;-77
2023/05/02 10:36:36;;;;;;;;;;;;;;;17.77;62.08;100775.38;4958183;28;19915;-80
2023/05/02 10:39:26;;;;;;;;;;;;;;;17.78;62.12;100779.69;4948796;29;19914;-79
2023/05/02 10:42:16;;;;;;;;;;;;;;;17.84;61.77;100772.75;4946147;29;19915;-78
2023/05/02 10:45:11;;;;;;;;;;;;;;;17.91;61.57;100770.16;4952467;28;19914;-79
2023/05/02 10:48:14;;;;;;;;;;;;;;;17.79;61.50;100764.78;4960612;28;19914;-79
2023/05/02 10:51:04;;;;;;;;;;;;;;;17.79;62.01;100767.53;4941373;28;19918;-79
2023/05/02 10:53:56;;;;;;;;;;;;;;;17.80;61.84;100766.38;4945937;29;19930;-79
2023/05/02 10:57:05;;;;;;;;;;;;;;;17.81;61.64;100762.47;4951586;28;19915;-78
2023/05/02 11:00:14;;;;;;;;;;;;;;;17.83;62.30;100757.41;4967704;28;19927;-80
2023/05/02 11:03:06;;;;;;;;;;;;;;;17.90;62.05;100762.25;4963561;28;19918;-80
2023/05/02 11:06:16;;;;;;;;;;;;;;;17.97;61.90;100767.09;4934366;29;19915;-79
2023/05/02 11:09:17;;;;;;;;;;;;;;;17.95;62.49;100760.00;4943692;29;19915;-78
2023/05/02 11:12:10;;;;;;;;;;;;;;;17.98;62.30;100772.22;4945188;29;19914;-77
2023/05/02 11:14:59;;;;;;;;;;;;;;;18.06;61.93;100759.41;4937590;29;19919;-78
2023/05/02 11:18:10;;;;;;;;;;;;;;;18.13;62.21;100762.31;4931809;29;19918;-78
2023/05/02 11:21:19;;;;;;;;;;;;;;;18.28;59.31;100761.41;4934904;29;19915;-78
2023/05/02 11:24:25;;;;;;;;;;;;;;;18.02;60.23;100759.34;4947108;28;19915;-81
2023/05/02 11:27:30;;;;;;;;;;;;;;;17.71;59.88;100757.56;4964741;28;19914;-82
2023/05/02 11:30:37;;;;;;;;;;;;;;;17.63;59.63;100766.00;4941157;28;19914;-81
2023/05/02 11:33:26;;;;;;;;;;;;;;;17.54;59.51;100756.00;4937760;29;19923;-81
2023/05/02 11:36:28;;;;;;;;;;;;;;;17.53;60.44;100759.09;4937258;29;19914;-81
2023/05/02 11:39:23;;;;;;;;;;;;;;;17.55;60.54;100765.03;4946333;28;19914;-80
2023/05/02 11:42:28;;;;;;;;;;;;;;;17.48;58.31;100757.44;4950345;29;19914;-80
2023/05/02 11:45:20;;;;;;;;;;;;;;;17.48;58.35;100762.13;4945428;28;19915;-80
2023/05/02 11:48:13;;;;;;;;;;;;;;;17.51;59.87;100753.19;4959969;28;19914;-79
2023/05/02 11:51:05;;;;;;;;;;;;;;;17.52;59.64;100771.28;4959143;28;19914;-81
2023/05/02 11:53:55;;;;;;;;;;;;;;;17.56;60.12;100771.34;4962225;28;19919;-79
2023/05/02 11:56:48;;;;;;;;;;;;;;;17.49;59.68;100764.53;4931068;28;19915;-80
2023/05/02 11:59:55;;;;;;;;;;;;;;;17.43;60.96;100774.22;4920318;29;19916;-80
2023/05/02 12:02:48;;;;;;;;;;;;;;;17.44;60.86;100769.50;4923483;29;19915;-81
2023/05/02 12:05:40;;;;;;;;;;;;;;;17.45;60.93;100769.16;4929833;29;19915;-80
2023/05/02 12:08:30;;;;;;;;;;;;;;;17.42;60.98;100775.38;4933606;29;20294;-80
2023/05/02 12:11:22;;;;;;;;;;;;;;;17.44;61.50;100777.75;4934215;28;20298;-78
2023/05/02 12:14:11;;;;;;;;;;;;;;;17.42;60.65;100772.63;4951404;28;19944;-79
2023/05/02 12:16:59;;;;;;;;;;;;;;;17.47;61.92;100769.59;4961776;28;19914;-80
2023/05/02 12:19:51;;;;;;;;;;;;;;;17.49;61.56;100771.97;4960764;28;19918;-78
2023/05/02 12:22:43;;;;;;;;;;;;;;;17.48;61.76;100781.38;4958166;28;19919;-80
2023/05/02 12:25:37;;;;;;;;;;;;;;;17.45;62.71;100782.09;4961034;28;20282;-80
2023/05/02 12:28:27;;;;;;;;;;;;;;;17.51;63.21;100786.97;4944870;28;19915;-79
2023/05/02 12:31:19;;;;;;;;;;;;;;;17.54;63.78;100782.69;4945841;28;19914;-79
2023/05/02 12:34:08;;;;;;;;;;;;;;;17.51;62.64;100777.94;4957620;28;20305;-79
2023/05/02 12:37:01;;;;;;;;;;;;;;;17.52;62.59;100779.53;4955165;28;19914;-79
2023/05/02 12:39:53;;;;;;;;;;;;;;;17.57;62.98;100779.25;4959595;28;19915;-79
2023/05/02 12:42:58;;;;;;;;;;;;;;;17.52;63.64;100785.03;4958171;28;19915;-79
2023/05/02 12:45:50;;;;;;;;;;;;;;;17.56;64.64;100777.66;4960236;28;19914;-79
2023/05/02 12:48:42;;;;;;;;;;;;;;;17.60;64.41;100786.00;4956780;28;19918;-79
2023/05/02 12:51:33;;;;;;;;;;;;;;;17.60;65.82;100784.03;4956437;28;19921;-80
2023/05/02 12:54:25;;;;;;;;;;;;;;;17.64;67.32;100778.59;4959237;28;19918;-79
2023/05/02 12:57:27;;;;;;;;;;;;;;;17.63;67.46;100783.31;4957388;28;20374;-79
2023/05/02 13:00:22;;;;;;;;;;;;;;;17.61;65.94;100782.09;4954995;28;19915;-80
2023/05/02 13:03:11;;;;;;;;;;;;;;;17.57;65.13;100790.25;4958244;28;19914;-79
2023/05/02 13:06:03;;;;;;;;;;;;;;;17.59;66.07;100792.63;4956915;28;19914;-79
2023/05/02 13:08:55;;;;;;;;;;;;;;;17.59;64.78;100796.19;4960563;28;19914;-79
2023/05/02 13:11:47;;;;;;;;;;;;;;;17.59;64.33;100790.69;4961532;28;19915;-79
2023/05/02 13:14:39;;;;;;;;;;;;;;;17.63;65.58;100788.00;4958564;28;20378;-80
2023/05/02 13:17:31;;;;;;;;;;;;;;;17.62;65.49;100792.75;4962410;28;19915;-79
2023/05/02 13:20:23;;;;;;;;;;;;;;;17.62;64.89;100802.94;4957354;28;19918;-79
2023/05/02 13:23:15;;;;;;;;;;;;;;;17.59;63.22;100798.13;4960583;28;19914;-79
2023/05/02 13:26:07;;;;;;;;;;;;;;;17.63;64.12;100793.50;4959299;28;19915;-79
2023/05/02 13:28:57;;;;;;;;;;;;;;;17.64;63.81;100786.84;4957238;28;19914;-79
2023/05/02 13:31:49;;;;;;;;;;;;;;;17.62;64.03;100790.00;4933331;28;19915;-79
2023/05/02 13:34:41;;;;;;;;;;;;;;;17.63;64.15;100788.81;4940439;29;19919;-80
2023/05/02 13:37:33;;;;;;;;;;;;;;;17.61;64.86;100780.13;4929157;29;19915;-79
2023/05/02 13:40:25;;;;;;;;;;;;;;;17.65;65.73;100786.50;4932350;29;20397;-79
2023/05/02 13:43:17;;;;;;;;;;;;;;;17.68;66.21;100785.78;4940276;29;19914;-80
2023/05/02 13:46:09;;;;;;;;;;;;;;;17.68;65.79;100791.28;4932093;29;19919;-80
2023/05/02 13:49:01;;;;;;;;;;;;;;;17.67;65.79;100789.69;4928355;29;19914;-79
2023/05/02 13:51:53;;;;;;;;;;;;;;;17.61;64.30;100785.63;4935382;29;19915;-79
2023/05/02 13:54:43;;;;;;;;;;;;;;;17.63;64.92;100777.00;4953552;29;19978;-82
2023/05/02 13:57:35;;;;;;;;;;;;;;;17.65;65.19;100774.69;4939764;29;19922;-80
2023/05/02 14:00:27;;;;;;;;;;;;;;;17.67;65.08;100775.16;4937970;29;20293;-81
2023/05/02 14:03:16;;;;;;;;;;;;;;;17.67;64.80;100783.41;4945475;29;19914;-79
2023/05/02 14:06:06;;;;;;;;;;;;;;;17.65;65.96;100783.75;4942411;28;19914;-80
2023/05/02 14:08:59;;;;;;;;;;;;;;;17.66;64.75;100782.59;4932498;29;19954;-80
2023/05/02 14:11:48;;;;;;;;;;;;;;;17.66;64.49;100787.31;4943011;28;19915;-79
2023/05/02 14:14:40;;;;;;;;;;;;;;;17.70;64.99;100788.16;4939009;29;19918;-80
2023/05/02 14:17:30;;;;;;;;;;;;;;;17.70;64.67;100791.72;4938299;29;19915;-82
2023/05/02 14:20:22;;;;;;;;;;;;;;;17.68;64.56;100791.28;4937154;29;19914;-80
2023/05/02 14:23:11;;;;;;;;;;;;;;;17.69;64.78;100792.88;4929933;29;20282;-81
2023/05/02 14:26:01;;;;;;;;;;;;;;;17.65;64.41;100788.47;4934769;29;19915;-79
2023/05/02 14:28:53;;;;;;;;;;;;;;;17.69;64.77;100794.81;4930710;29;19915;-81
2023/05/02 14:31:45;;;;;;;;;;;;;;;17.67;64.18;100789.69;4931813;29;19914;-79
2023/05/02 14:34:37;;;;;;;;;;;;;;;17.66;63.90;100798.31;4932839;29;19923;-79
2023/05/02 14:37:29;;;;;;;;;;;;;;;17.65;63.57;100786.50;4937302;29;20302;-79
2023/05/02 14:40:18;;;;;;;;;;;;;;;17.67;64.08;100789.69;4942824;28;20289;-78
2023/05/02 14:43:10;;;;;;;;;;;;;;;17.66;63.32;100785.34;4952287;28;20385;-80
2023/05/02 14:46:02;;;;;;;;;;;;;;;17.66;63.02;100779.84;4963611;28;20327;-77
2023/05/02 14:48:54;;;;;;;;;;;;;;;17.67;61.86;100788.91;4939261;29;19915;-78